Time,TemperatureF,DewpointF,PressureIn,WindDirection,WindDirectionDegrees,WindSpeedMPH,WindSpeedGustMPH,Humidity,HourlyPrecipIn,Conditions,Clouds,dailyrainin,SoftwareType,DateUTC
2013-04-11 00:03:00,66.0,-99.9,-100.00,South,170,7.0,10.0,-999,-99.99,,,-99.99,,2013-04-11 04:03:00,
2013-04-11 00:13:00,66.0,-99.9,-100.00,SSE,160,6.0,9.0,-999,-99.99,,,-99.99,,2013-04-11 04:13:00,
2013-04-11 00:23:00,66.0,-99.9,-100.00,SSE,165,4.0,7.0,-999,-99.99,,,-99.99,,2013-04-11 04:23:00,
2013-04-11 00:33:00,66.0,-99.9,-100.00,SSE,160,6.0,7.0,-999,-99.99,,,-99.99,,2013-04-11 04:33:00,
2013-04-11 00:43:00,66.0,-99.9,-100.00,SSE,150,6.0,9.0,-999,-99.99,,,-99.99,,2013-04-11 04:43:00,
2013-04-11 00:53:00,66.0,-99.9,-100.00,SSE,150,9.0,11.0,-999,-99.99,,,-99.99,,2013-04-11 04:53:00,
2013-04-11 01:03:00,66.0,-99.9,-100.00,SSE,155,6.0,10.0,-999,-99.99,,,-99.99,,2013-04-11 05:03:00,
2013-04-11 01:13:00,66.0,-99.9,-100.00,SSE,160,6.0,8.0,-999,-99.99,,,-99.99,,2013-04-11 05:13:00,
2013-04-11 01:23:00,66.0,-99.9,-100.00,South,175,5.0,8.0,-999,-99.99,,,-99.99,,2013-04-11 05:23:00,
2013-04-11 01:32:00,66.0,-99.9,-100.00,South,180,5.0,7.0,-999,-99.99,,,-99.99,,2013-04-11 05:32:00,
2013-04-11 01:42:00,66.0,-99.9,-100.00,SSE,160,6.0,9.0,-999,-99.99,,,-99.99,,2013-04-11 05:42:00,
2013-04-11 01:52:00,66.0,-99.9,-100.00,South,175,6.0,9.0,-999,-99.99,,,-99.99,,2013-04-11 05:52:00,
2013-04-11 02:02:00,66.0,-99.9,-100.00,South,175,6.0,9.0,-999,-99.99,,,-99.99,,2013-04-11 06:02:00,
2013-04-11 02:12:00,66.0,-99.9,-100.00,South,180,7.0,11.0,-999,-99.99,,,-99.99,,2013-04-11 06:12:00,
2013-04-11 02:22:00,66.0,-99.9,-100.00,South,180,6.0,9.0,-999,-99.99,,,-99.99,,2013-04-11 06:22:00,
2013-04-11 02:32:00,66.0,-99.9,-100.00,South,180,6.0,9.0,-999,-99.99,,,-99.99,,2013-04-11 06:32:00,
2013-04-11 02:42:00,65.0,-99.9,-100.00,SSE,160,5.0,7.0,-999,-99.99,,,-99.99,,2013-04-11 06:42:00,
2013-04-11 02:53:00,66.0,-99.9,-100.00,SSE,155,5.0,7.0,-999,-99.99,,,-99.99,,2013-04-11 06:53:00,
2013-04-11 03:03:00,66.0,-99.9,-100.00,SSE,160,5.0,9.0,-999,-99.99,,,-99.99,,2013-04-11 07:03:00,
2013-04-11 03:12:00,66.0,-99.9,-100.00,SSE,165,5.0,8.0,-999,-99.99,,,-99.99,,2013-04-11 07:12:00,
2013-04-11 03:22:00,66.0,-99.9,-100.00,SSE,160,5.0,7.0,-999,-99.99,,,-99.99,,2013-04-11 07:22:00,
2013-04-11 03:32:00,65.0,-99.9,-100.00,SSE,160,5.0,6.0,-999,-99.99,,,-99.99,,2013-04-11 07:32:00,
2013-04-11 03:43:00,65.0,-99.9,-100.00,SE,145,4.0,7.0,-999,-99.99,,,-99.99,,2013-04-11 07:43:00,
2013-04-11 03:52:00,65.0,-99.9,-100.00,SSE,160,4.0,6.0,-999,-99.99,,,-99.99,,2013-04-11 07:52:00,
2013-04-11 04:03:00,65.0,-99.9,-100.00,SSE,160,6.0,8.0,-999,-99.99,,,-99.99,,2013-04-11 08:03:00,
2013-04-11 04:12:00,65.0,-99.9,-100.00,SSE,165,6.0,9.0,-999,-99.99,,,-99.99,,2013-04-11 08:12:00,
2013-04-11 04:22:00,65.0,-99.9,-100.00,South,170,7.0,10.0,-999,-99.99,,,-99.99,,2013-04-11 08:22:00,
2013-04-11 04:33:00,65.0,-99.9,-100.00,South,180,6.0,9.0,-999,-99.99,,,-99.99,,2013-04-11 08:33:00,
2013-04-11 04:43:00,65.0,-99.9,-100.00,SSE,160,4.0,7.0,-999,-99.99,,,-99.99,,2013-04-11 08:43:00,
2013-04-11 04:52:00,65.0,-99.9,-100.00,SSE,160,4.0,6.0,-999,-99.99,,,-99.99,,2013-04-11 08:52:00,
2013-04-11 05:02:00,65.0,-99.9,-100.00,SE,145,3.0,6.0,-999,-99.99,,,-99.99,,2013-04-11 09:02:00,
2013-04-11 05:12:00,65.0,-99.9,-100.00,SE,125,3.0,7.0,-999,-99.99,,,-99.99,,2013-04-11 09:12:00,
2013-04-11 05:22:00,65.0,-99.9,-100.00,SSE,150,4.0,8.0,-999,-99.99,,,-99.99,,2013-04-11 09:22:00,
2013-04-11 05:33:00,65.0,-99.9,-100.00,ESE,120,4.0,7.0,-999,-99.99,,,-99.99,,2013-04-11 09:33:00,
2013-04-11 05:43:00,65.0,-99.9,-100.00,ESE,120,4.0,7.0,-999,-99.99,,,-99.99,,2013-04-11 09:43:00,
2013-04-11 05:53:00,65.0,-99.9,-100.00,SE,145,4.0,7.0,-999,-99.99,,,-99.99,,2013-04-11 09:53:00,
2013-04-11 06:03:00,65.0,-99.9,-100.00,SE,145,4.0,7.0,-999,-99.99,,,-99.99,,2013-04-11 10:03:00,
2013-04-11 06:13:00,65.0,-99.9,-100.00,SE,130,5.0,9.0,-999,-99.99,,,-99.99,,2013-04-11 10:13:00,
2013-04-11 06:23:00,65.0,-99.9,-100.00,SE,130,5.0,9.0,-999,-99.99,,,-99.99,,2013-04-11 10:23:00,
2013-04-11 06:33:00,65.0,-99.9,-100.00,SE,135,5.0,8.0,-999,-99.99,,,-99.99,,2013-04-11 10:33:00,
2013-04-11 06:42:00,65.0,-99.9,-100.00,SE,135,5.0,8.0,-999,-99.99,,,-99.99,,2013-04-11 10:42:00,
2013-04-11 06:53:00,65.0,-99.9,-100.00,SE,145,5.0,9.0,-999,-99.99,,,-99.99,,2013-04-11 10:53:00,
2013-04-11 07:03:00,65.0,-99.9,-100.00,SE,145,5.0,9.0,-999,-99.99,,,-99.99,,2013-04-11 11:03:00,
2013-04-11 07:13:00,65.0,-99.9,-100.00,SSE,155,4.0,7.0,-999,-99.99,,,-99.99,,2013-04-11 11:13:00,
2013-04-11 07:23:00,65.0,-99.9,-100.00,SE,130,5.0,9.0,-999,-99.99,,,-99.99,,2013-04-11 11:23:00,
2013-04-11 07:32:00,65.0,-99.9,-100.00,SE,135,5.0,9.0,-999,-99.99,,,-99.99,,2013-04-11 11:32:00,
2013-04-11 07:43:00,66.0,-99.9,-100.00,South,175,4.0,8.0,-999,-99.99,,,-99.99,,2013-04-11 11:43:00,
2013-04-11 07:53:00,66.0,-99.9,-100.00,South,180,4.0,8.0,-999,-99.99,,,-99.99,,2013-04-11 11:53:00,
2013-04-11 08:02:00,66.0,-99.9,-100.00,SE,145,6.0,9.0,-999,-99.99,,,-99.99,,2013-04-11 12:02:00,
2013-04-11 08:13:00,66.0,-99.9,-100.00,SSE,160,5.0,9.0,-999,-99.99,,,-99.99,,2013-04-11 12:13:00,
2013-04-11 08:23:00,66.0,-99.9,-100.00,SSE,165,4.0,8.0,-999,-99.99,,,-99.99,,2013-04-11 12:23:00,
2013-04-11 08:32:00,67.0,-99.9,-100.00,South,170,5.0,9.0,-999,-99.99,,,-99.99,,2013-04-11 12:32:00,
2013-04-11 08:43:00,67.0,-99.9,-100.00,SSE,165,6.0,10.0,-999,-99.99,,,-99.99,,2013-04-11 12:43:00,
2013-04-11 08:53:00,67.0,-99.9,-100.00,South,175,6.0,10.0,-999,-99.99,,,-99.99,,2013-04-11 12:53:00,
2013-04-11 09:03:00,67.0,-99.9,-100.00,South,170,6.0,10.0,-999,-99.99,,,-99.99,,2013-04-11 13:03:00,
2013-04-11 09:13:00,68.0,-99.9,-100.00,South,170,4.0,11.0,-999,-99.99,,,-99.99,,2013-04-11 13:13:00,
2013-04-11 09:23:00,69.0,-99.9,-100.00,South,170,5.0,10.0,-999,-99.99,,,-99.99,,2013-04-11 13:23:00,
2013-04-11 09:33:00,69.0,-99.9,-100.00,SSE,160,6.0,10.0,-999,-99.99,,,-99.99,,2013-04-11 13:33:00,
2013-04-11 09:43:00,70.0,-99.9,-100.00,South,175,6.0,10.0,-999,-99.99,,,-99.99,,2013-04-11 13:43:00,
2013-04-11 09:54:00,71.0,-99.9,-100.00,South,190,5.0,16.0,-999,-99.99,,,-99.99,,2013-04-11 13:54:00,
2013-04-11 10:03:00,71.0,-99.9,-100.00,SSW,195,10.0,16.0,-999,-99.99,,,-99.99,,2013-04-11 14:03:00,
2013-04-11 10:13:00,71.0,-99.9,-100.00,South,185,6.0,14.0,-999,-99.99,,,-99.99,,2013-04-11 14:13:00,
2013-04-11 10:20:00,72.0,-99.9,-100.00,South,190,16.0,24.0,-999,-99.99,,,-99.99,,2013-04-11 14:20:00,
2013-04-11 10:22:00,71.0,-99.9,-100.00,South,185,11.0,18.0,-999,-99.99,,,-99.99,,2013-04-11 14:22:00,
2013-04-11 10:33:00,72.0,-99.9,-100.00,South,180,9.0,18.0,-999,-99.99,,,-99.99,,2013-04-11 14:33:00,
2013-04-11 10:43:00,72.0,-99.9,-100.00,SSE,165,11.0,22.0,-999,-99.99,,,-99.99,,2013-04-11 14:43:00,
2013-04-11 10:53:00,72.0,-99.9,-100.00,South,190,16.0,24.0,-999,-99.99,,,-99.99,,2013-04-11 14:53:00,
2013-04-11 11:03:00,72.0,-99.9,-100.00,South,190,16.0,24.0,-999,-99.99,,,-99.99,,2013-04-11 15:03:00,
2013-04-11 11:12:00,72.0,-99.9,-100.00,South,190,16.0,24.0,-999,-99.99,,,-99.99,,2013-04-11 15:12:00,
2013-04-11 12:23:00,74.0,-99.9,-100.00,South,185,16.0,23.0,-999,-99.99,,,-99.99,,2013-04-11 16:23:00,
2013-04-11 12:33:00,74.0,-99.9,-100.00,South,185,16.0,23.0,-999,-99.99,,,-99.99,,2013-04-11 16:33:00,
2013-04-11 12:42:00,74.0,-99.9,-100.00,South,185,16.0,23.0,-999,-99.99,,,-99.99,,2013-04-11 16:42:00,
2013-04-11 12:53:00,75.0,-99.9,-100.00,WSW,240,7.0,23.0,-999,-99.99,,,-99.99,,2013-04-11 16:53:00,
2013-04-11 13:03:00,75.0,-99.9,-100.00,South,180,14.0,26.0,-999,-99.99,,,-99.99,,2013-04-11 17:03:00,
2013-04-11 13:13:00,75.0,-99.9,-100.00,South,180,14.0,26.0,-999,-99.99,,,-99.99,,2013-04-11 17:13:00,
2013-04-11 13:23:00,76.0,-99.9,-100.00,South,175,9.0,24.0,-999,-99.99,,,-99.99,,2013-04-11 17:23:00,
2013-04-11 13:33:00,76.0,-99.9,-100.00,SSW,205,7.0,24.0,-999,-99.99,,,-99.99,,2013-04-11 17:33:00,
2013-04-11 13:43:00,75.0,-99.9,-100.00,SW,225,12.0,23.0,-999,-99.99,,,-99.99,,2013-04-11 17:43:00,
2013-04-11 13:53:00,74.0,-99.9,-100.00,South,180,14.0,20.0,-999,-99.99,,,-99.99,,2013-04-11 17:53:00,
2013-04-11 14:03:00,74.0,-99.9,-100.00,South,185,16.0,24.0,-999,-99.99,,,-99.99,,2013-04-11 18:03:00,
2013-04-11 14:13:00,75.0,-99.9,-100.00,South,175,19.0,28.0,-999,-99.99,,,-99.99,,2013-04-11 18:13:00,
2013-04-11 14:23:00,75.0,-99.9,-100.00,South,175,19.0,28.0,-999,-99.99,,,-99.99,,2013-04-11 18:23:00,
2013-04-11 14:33:00,74.0,-99.9,-100.00,South,170,14.0,22.0,-999,-99.99,,,-99.99,,2013-04-11 18:33:00,
2013-04-11 14:43:00,72.0,-99.9,-100.00,SSE,150,15.0,21.0,-999,-99.99,,,-99.99,,2013-04-11 18:43:00,
2013-04-11 14:53:00,73.0,-99.9,-100.00,SE,140,13.0,21.0,-999,-99.99,,,-99.99,,2013-04-11 18:53:00,
2013-04-11 15:04:00,73.0,-99.9,-100.00,SSE,160,13.0,21.0,-999,-99.99,,,-99.99,,2013-04-11 19:04:00,
2013-04-11 15:14:00,73.0,-99.9,-100.00,SSE,160,13.0,21.0,-999,-99.99,,,-99.99,,2013-04-11 19:14:00,
2013-04-11 15:23:00,72.0,-99.9,-100.00,South,170,15.0,24.0,-999,-99.99,,,-99.99,,2013-04-11 19:23:00,
2013-04-11 15:33:00,72.0,-99.9,-100.00,SSE,160,14.0,21.0,-999,-99.99,,,-99.99,,2013-04-11 19:33:00,
2013-04-11 15:43:00,72.0,-99.9,-100.00,SSE,160,13.0,21.0,-999,-99.99,,,-99.99,,2013-04-11 19:43:00,
2013-04-11 15:53:00,73.0,-99.9,-100.00,South,190,16.0,24.0,-999,-99.99,,,-99.99,,2013-04-11 19:53:00,
2013-04-11 16:03:00,73.0,-99.9,-100.00,South,190,16.0,24.0,-999,-99.99,,,-99.99,,2013-04-11 20:03:00,
2013-04-11 16:13:00,73.0,-99.9,-100.00,SSW,205,14.0,27.0,-999,-99.99,,,-99.99,,2013-04-11 20:13:00,
2013-04-11 16:23:00,74.0,-99.9,-100.00,South,190,14.0,26.0,-999,-99.99,,,-99.99,,2013-04-11 20:23:00,
2013-04-11 16:34:00,74.0,-99.9,-100.00,South,170,18.0,27.0,-999,-99.99,,,-99.99,,2013-04-11 20:34:00,
2013-04-11 16:43:00,73.0,-99.9,-100.00,South,180,19.0,29.0,-999,-99.99,,,-99.99,,2013-04-11 20:43:00,
2013-04-11 16:53:00,73.0,-99.9,-100.00,South,180,19.0,29.0,-999,-99.99,,,-99.99,,2013-04-11 20:53:00,
2013-04-11 17:03:00,73.0,-99.9,-100.00,SSW,200,19.0,32.0,-999,-99.99,,,-99.99,,2013-04-11 21:03:00,
2013-04-11 17:13:00,73.0,-99.9,-100.00,South,180,11.0,21.0,-999,-99.99,,,-99.99,,2013-04-11 21:13:00,
2013-04-11 17:23:00,73.0,-99.9,-100.00,South,170,17.0,27.0,-999,-99.99,,,-99.99,,2013-04-11 21:23:00,
2013-04-11 17:33:00,73.0,-99.9,-100.00,South,170,21.0,27.0,-999,-99.99,,,-99.99,,2013-04-11 21:33:00,
2013-04-11 17:43:00,74.0,-99.9,-100.00,South,180,14.0,26.0,-999,-99.99,,,-99.99,,2013-04-11 21:43:00,
2013-04-11 17:54:00,74.0,-99.9,-100.00,South,180,14.0,26.0,-999,-99.99,,,-99.99,,2013-04-11 21:54:00,
2013-04-11 18:03:00,74.0,-99.9,-100.00,South,175,14.0,27.0,-999,-99.99,,,-99.99,,2013-04-11 22:03:00,
2013-04-11 18:14:00,73.0,-99.9,-100.00,South,180,14.0,27.0,-999,-99.99,,,-99.99,,2013-04-11 22:14:00,
2013-04-11 18:23:00,73.0,-99.9,-100.00,SSE,165,17.0,24.0,-999,-99.99,,,-99.99,,2013-04-11 22:23:00,
2013-04-11 18:33:00,73.0,-99.9,-100.00,SE,130,9.0,26.0,-999,-99.99,,,-99.99,,2013-04-11 22:33:00,
2013-04-11 18:44:00,73.0,-99.9,-100.00,South,180,21.0,30.0,-999,-99.99,,,-99.99,,2013-04-11 22:44:00,
2013-04-11 18:53:00,73.0,-99.9,-100.00,South,180,21.0,30.0,-999,-99.99,,,-99.99,,2013-04-11 22:53:00,
2013-04-11 19:04:00,72.0,-99.9,-100.00,SSE,160,17.0,27.0,-999,-99.99,,,-99.99,,2013-04-11 23:04:00,
2013-04-11 19:13:00,72.0,-99.9,-100.00,SSE,160,15.0,28.0,-999,-99.99,,,-99.99,,2013-04-11 23:13:00,
2013-04-11 19:23:00,71.0,-99.9,-100.00,SE,130,11.0,22.0,-999,-99.99,,,-99.99,,2013-04-11 23:23:00,
2013-04-11 19:33:00,70.0,-99.9,-100.00,SE,135,14.0,19.0,-999,-99.99,,,-99.99,,2013-04-11 23:33:00,
2013-04-11 19:43:00,70.0,-99.9,-100.00,SE,145,14.0,19.0,-999,-99.99,,,-99.99,,2013-04-11 23:43:00,
2013-04-11 19:54:00,69.0,-99.9,-100.00,SE,135,11.0,19.0,-999,-99.99,,,-99.99,,2013-04-11 23:54:00,
2013-04-11 20:02:00,69.0,-99.9,-100.00,SE,140,12.0,17.0,-999,-99.99,,,-99.99,,2013-04-12 00:02:00,
2013-04-11 20:12:00,69.0,-99.9,-100.00,SE,130,13.0,17.0,-999,-99.99,,,-99.99,,2013-04-12 00:12:00,
2013-04-11 20:23:00,68.0,-99.9,-100.00,SE,135,11.0,16.0,-999,-99.99,,,-99.99,,2013-04-12 00:23:00,
2013-04-11 20:33:00,68.0,-99.9,-100.00,SE,135,11.0,16.0,-999,-99.99,,,-99.99,,2013-04-12 00:33:00,
2013-04-11 20:43:00,68.0,-99.9,-100.00,SE,140,11.0,16.0,-999,-99.99,,,-99.99,,2013-04-12 00:43:00,
2013-04-11 20:53:00,68.0,-99.9,-100.00,SE,140,11.0,16.0,-999,-99.99,,,-99.99,,2013-04-12 00:53:00,
2013-04-11 21:03:00,68.0,-99.9,-100.00,SSE,150,11.0,15.0,-999,-99.99,,,-99.99,,2013-04-12 01:03:00,
2013-04-11 21:12:00,69.0,-99.9,-100.00,SE,140,11.0,15.0,-999,-99.99,,,-99.99,,2013-04-12 01:12:00,
2013-04-11 21:23:00,68.0,-99.9,-100.00,SE,130,11.0,16.0,-999,-99.99,,,-99.99,,2013-04-12 01:23:00,
2013-04-11 21:33:00,69.0,-99.9,-100.00,SSE,150,12.0,17.0,-999,-99.99,,,-99.99,,2013-04-12 01:33:00,
2013-04-11 21:43:00,68.0,-99.9,-100.00,SSE,150,11.0,16.0,-999,-99.99,,,-99.99,,2013-04-12 01:43:00,
2013-04-11 21:53:00,68.0,-99.9,-100.00,SSE,150,11.0,16.0,-999,-99.99,,,-99.99,,2013-04-12 01:53:00,
2013-04-11 22:03:00,69.0,-99.9,-100.00,SE,140,13.0,16.0,-999,-99.99,,,-99.99,,2013-04-12 02:03:00,
2013-04-11 22:13:00,69.0,-99.9,-100.00,SE,145,11.0,18.0,-999,-99.99,,,-99.99,,2013-04-12 02:13:00,
2013-04-11 22:23:00,69.0,-99.9,-100.00,SSE,150,11.0,17.0,-999,-99.99,,,-99.99,,2013-04-12 02:23:00,
2013-04-11 22:33:00,69.0,-99.9,-100.00,SE,130,10.0,16.0,-999,-99.99,,,-99.99,,2013-04-12 02:33:00,
2013-04-11 22:42:00,69.0,-99.9,-100.00,SE,135,13.0,19.0,-999,-99.99,,,-99.99,,2013-04-12 02:42:00,
2013-04-11 22:53:00,69.0,-99.9,-100.00,SE,135,13.0,19.0,-999,-99.99,,,-99.99,,2013-04-12 02:53:00,
2013-04-11 23:02:00,69.0,-99.9,-100.00,SE,145,18.0,22.0,-999,-99.99,,,-99.99,,2013-04-12 03:02:00,
2013-04-11 23:12:00,69.0,-99.9,-100.00,SE,140,16.0,24.0,-999,-99.99,,,-99.99,,2013-04-12 03:12:00,
2013-04-11 23:22:00,70.0,-99.9,-100.00,SSE,160,15.0,27.0,-999,-99.99,,,-99.99,,2013-04-12 03:22:00,
2013-04-11 23:33:00,70.0,-99.9,-100.00,SSE,155,19.0,26.0,-999,-99.99,,,-99.99,,2013-04-12 03:33:00,
2013-04-11 23:43:00,70.0,-99.9,-100.00,SSE,160,19.0,26.0,-999,-99.99,,,-99.99,,2013-04-12 03:43:00,
2013-04-11 23:53:00,70.0,-99.9,-100.00,SSE,160,16.0,24.0,-999,-99.99,,,-99.99,,2013-04-12 03:53:00,